Home   Weather   Australia   Darwin   Past weeks
Flag for Australia

Past Weather in Darwin, Northern Territory, Australia — Yesterday and Last 2 Weeks

Currently: 82 °F. Sunny. (Weather station: Darwin Airport, Australia). See more current weather

Past Weather in Darwin — Graph

°F

Darwin Temperature Yesterday

Maximum temperature yesterday: 95 °F (at 2:00 pm)
Minimum temperature yesterday: 77 °F (at 6:30 am)
Average temperature yesterday: 86 °F

High & Low Weather Summary for the Past Weeks

 TemperatureHumidityPressure
High95 °F (Apr 16, 2:00 pm)94% (Apr 2, 7:30 am)29.95 "Hg (Apr 2, 7:30 am)
Low72 °F (Apr 11, 6:00 am)33% (Apr 11, 12:30 pm)29.71 "Hg (Apr 7, 4:00 pm)
Average83 °F68%29.83 "Hg
* Reported Apr 2 7:30 am — Apr 17 8:00 am, Darwin. Weather by CustomWeather, © 2024

Note: Actual official high and low records may vary slightly from our data, if they occured in-between our weather recording intervals... More about our weather records

Darwin Weather History for the Previous 24 Hours

Scroll right to see more
 ConditionsComfort  
Time TempWeatherWind HumidityBarometerVisibility
8:00 am
Wed, Apr 17
81 °FSunny.9 mph74%29.86 "Hg10 mi
7:30 am81 °FSunny.8 mph74%29.83 "Hg10 mi
7:00 am81 °FClear.8 mph74%29.83 "Hg10 mi
6:30 am81 °FPassing clouds.8 mph74%29.83 "HgN/A
6:00 am81 °FMostly cloudy.8 mph74%29.83 "HgN/A
5:30 am82 °FMostly cloudy.6 mph74%29.83 "HgN/A
5:00 am82 °FMostly cloudy.7 mph74%29.80 "HgN/A
4:30 am81 °FPartly cloudy.6 mph79%29.80 "HgN/A
4:00 am81 °FPassing clouds.5 mph79%29.80 "HgN/A
3:30 am82 °FPassing clouds.5 mph74%29.80 "HgN/A
3:00 am82 °FMostly cloudy.6 mph74%29.80 "HgN/A
2:30 am82 °FMostly cloudy.6 mph74%29.80 "HgN/A
2:00 am84 °FMostly cloudy.6 mph74%29.80 "HgN/A
1:30 am82 °FMostly cloudy.5 mph79%29.83 "HgN/A
1:00 am84 °FPassing clouds.5 mph74%29.83 "HgN/A
12:30 am84 °FMostly cloudy.6 mph74%29.83 "HgN/A
12:00 am84 °FOvercast.7 mph74%29.83 "HgN/A
11:30 pm
Tue, Apr 16
84 °FClear.7 mph70%29.86 "Hg10 mi
11:00 pm86 °FClear.6 mph66%29.86 "Hg10 mi
10:30 pm86 °FClear.3 mph66%29.86 "Hg10 mi
10:00 pm86 °FClear.5 mph75%29.86 "Hg10 mi
9:30 pm86 °FClear.5 mph75%29.86 "Hg10 mi
9:00 pm86 °FClear.5 mph75%29.83 "Hg10 mi
8:30 pm86 °FClear.3 mph75%29.83 "Hg10 mi
8:00 pm86 °FClear.6 mph75%29.83 "Hg10 mi
7:30 pm86 °FClear.3 mph70%29.83 "Hg10 mi
7:00 pm88 °FSunny.6 mph66%29.83 "Hg10 mi
6:30 pm90 °FSunny.5 mph52%29.80 "Hg10 mi
6:00 pm91 °FSunny.6 mph49%29.80 "Hg10 mi
5:30 pm91 °FSunny.6 mph49%29.80 "Hg10 mi
5:00 pm91 °FSunny.6 mph49%29.80 "Hg10 mi
4:30 pm93 °FSunny.9 mph44%29.80 "Hg10 mi
4:00 pm95 °FSunny.12 mph41%29.80 "Hg10 mi
3:30 pm95 °FSunny.10 mph39%29.80 "Hg10 mi
3:00 pm93 °FSunny.12 mph41%29.80 "Hg10 mi
2:30 pm95 °FSunny.14 mph41%29.80 "Hg10 mi
2:00 pm95 °FSunny.17 mph41%29.80 "Hg10 mi
1:30 pm93 °FSunny.14 mph44%29.83 "Hg10 mi
1:00 pm93 °FPassing clouds.13 mph47%29.83 "HgN/A
12:30 pm91 °FSunny.17 mph46%29.86 "Hg10 mi
12:00 pm91 °FSunny.16 mph49%29.89 "Hg10 mi
11:30 am90 °FSunny.16 mph49%29.89 "Hg10 mi
11:00 am90 °FSunny.17 mph49%29.92 "Hg10 mi
10:30 am90 °FSunny.15 mph49%29.92 "Hg10 mi
10:00 am88 °FSunny.12 mph52%29.92 "Hg10 mi
9:30 am86 °FSunny.9 mph59%29.92 "Hg10 mi
9:00 am84 °FSunny.6 mph66%29.92 "Hg10 mi
Weather by CustomWeather, © 2024

See weather overview